sensor_id;sensor_type;location;lat;lon;timestamp;pressure;altitude;pressure_sealevel;temperature;humidity
76164;BME280;64897;50.816;4.422;2023-05-10T00:01:15;100115.25;;;12.84;100.00
76164;BME280;64897;50.816;4.422;2023-05-10T00:04:02;100109.56;;;12.89;100.00
76164;BME280;64897;50.816;4.422;2023-05-10T00:06:50;100123.00;;;12.95;100.00
76164;BME280;64897;50.816;4.422;2023-05-10T00:09:36;100114.75;;;13.00;100.00
76164;BME280;64897;50.816;4.422;2023-05-10T00:12:24;100111.13;;;12.91;100.00
76164;BME280;64897;50.816;4.422;2023-05-10T00:15:11;100111.41;;;12.98;100.00
76164;BME280;64897;50.816;4.422;2023-05-10T00:17:58;100107.25;;;12.95;100.00
76164;BME280;64897;50.816;4.422;2023-05-10T00:20:45;100111.41;;;12.98;100.00
76164;BME280;64897;50.816;4.422;2023-05-10T00:23:32;100113.63;;;13.02;100.00
76164;BME280;64897;50.816;4.422;2023-05-10T00:26:20;100117.53;;;13.08;100.00
76164;BME280;64897;50.816;4.422;2023-05-10T00:29:12;100112.66;;;13.03;100.00
76164;BME280;64897;50.816;4.422;2023-05-10T00:31:59;100113.47;;;13.04;100.00
76164;BME280;64897;50.816;4.422;2023-05-10T00:34:46;100112.13;;;13.09;100.00
76164;BME280;64897;50.816;4.422;2023-05-10T00:37:32;100107.72;;;13.10;100.00
76164;BME280;64897;50.816;4.422;2023-05-10T00:40:20;100103.41;;;12.99;100.00
76164;BME280;64897;50.816;4.422;2023-05-10T00:43:12;100102.28;;;12.92;100.00
76164;BME280;64897;50.816;4.422;2023-05-10T00:46:00;100098.97;;;12.90;100.00
76164;BME280;64897;50.816;4.422;2023-05-10T00:48:47;100105.06;;;12.91;100.00
76164;BME280;64897;50.816;4.422;2023-05-10T00:51:34;100103.41;;;12.99;100.00
76164;BME280;64897;50.816;4.422;2023-05-10T00:54:21;100095.81;;;12.96;100.00
76164;BME280;64897;50.816;4.422;2023-05-10T00:57:10;100102.97;;;12.94;100.00
76164;BME280;64897;50.816;4.422;2023-05-10T00:59:59;100104.50;;;12.97;100.00
76164;BME280;64897;50.816;4.422;2023-05-10T01:02:50;100101.16;;;12.95;100.00
76164;BME280;64897;50.816;4.422;2023-05-10T01:05:37;100100.34;;;12.94;100.00
76164;BME280;64897;50.816;4.422;2023-05-10T01:08:24;100097.31;;;12.99;100.00
76164;BME280;64897;50.816;4.422;2023-05-10T01:11:11;100102.88;;;13.05;100.00
76164;BME280;64897;50.816;4.422;2023-05-10T01:13:58;100113.13;;;13.08;100.00
76164;BME280;64897;50.816;4.422;2023-05-10T01:16:47;100110.19;;;13.11;100.00
76164;BME280;64897;50.816;4.422;2023-05-10T01:19:36;100112.28;;;13.08;100.00
76164;BME280;64897;50.816;4.422;2023-05-10T01:22:42;100106.22;;;13.07;100.00
76164;BME280;64897;50.816;4.422;2023-05-10T01:25:58;100108.28;;;13.13;100.00
76164;BME280;64897;50.816;4.422;2023-05-10T01:29:19;100109.66;;;13.08;100.00
76164;BME280;64897;50.816;4.422;2023-05-10T01:32:15;100105.94;;;13.10;100.00
76164;BME280;64897;50.816;4.422;2023-05-10T01:35:07;100108.28;;;13.13;100.00
76164;BME280;64897;50.816;4.422;2023-05-10T01:38:03;100108.13;;;13.15;100.00
76164;BME280;64897;50.816;4.422;2023-05-10T01:41:01;100107.56;;;13.11;100.00
76164;BME280;64897;50.816;4.422;2023-05-10T01:43:57;100103.59;;;13.17;100.00
76164;BME280;64897;50.816;4.422;2023-05-10T01:46:53;100104.84;;;13.13;100.00
76164;BME280;64897;50.816;4.422;2023-05-10T01:49:49;100107.97;;;13.07;100.00
76164;BME280;64897;50.816;4.422;2023-05-10T01:52:41;100105.09;;;13.10;100.00
76164;BME280;64897;50.816;4.422;2023-05-10T01:55:32;100106.22;;;13.07;100.00
76164;BME280;64897;50.816;4.422;2023-05-10T01:58:25;100109.50;;;13.09;100.00
76164;BME280;64897;50.816;4.422;2023-05-10T02:01:14;100104.41;;;13.08;100.00
76164;BME280;64897;50.816;4.422;2023-05-10T02:04:02;100108.38;;;13.02;100.00
76164;BME280;64897;50.816;4.422;2023-05-10T02:06:52;100111.00;;;13.02;100.00
76164;BME280;64897;50.816;4.422;2023-05-10T02:09:41;100106.63;;;13.12;100.00
76164;BME280;64897;50.816;4.422;2023-05-10T02:12:33;100107.88;;;13.08;100.00
76164;BME280;64897;50.816;4.422;2023-05-10T02:15:23;100116.56;;;13.09;100.00
76164;BME280;64897;50.816;4.422;2023-05-10T02:18:11;100113.94;;;13.09;100.00
76164;BME280;64897;50.816;4.422;2023-05-10T02:20:59;100111.88;;;13.12;100.00
76164;BME280;64897;50.816;4.422;2023-05-10T02:23:52;100128.75;;;13.20;100.00
76164;BME280;64897;50.816;4.422;2023-05-10T02:26:40;100120.03;;;13.19;100.00
76164;BME280;64897;50.816;4.422;2023-05-10T02:29:29;100133.53;;;13.14;100.00
76164;BME280;64897;50.816;4.422;2023-05-10T02:32:18;100134.63;;;13.02;100.00
76164;BME280;64897;50.816;4.422;2023-05-10T02:35:07;100131.84;;;13.04;100.00
76164;BME280;64897;50.816;4.422;2023-05-10T02:37:55;100130.06;;;13.04;100.00
76164;BME280;64897;50.816;4.422;2023-05-10T02:40:45;100131.00;;;13.03;100.00
76164;BME280;64897;50.816;4.422;2023-05-10T02:43:33;100131.00;;;13.03;100.00
76164;BME280;64897;50.816;4.422;2023-05-10T02:46:22;100131.28;;;13.00;100.00
76164;BME280;64897;50.816;4.422;2023-05-10T02:49:09;100133.22;;;12.98;100.00
76164;BME280;64897;50.816;4.422;2023-05-10T02:52:00;100132.94;;;13.01;100.00
76164;BME280;64897;50.816;4.422;2023-05-10T02:54:52;100137.69;;;13.07;100.00
76164;BME280;64897;50.816;4.422;2023-05-10T02:57:48;100138.19;;;13.01;100.00
76164;BME280;64897;50.816;4.422;2023-05-10T03:00:37;100139.59;;;13.05;100.00
76164;BME280;64897;50.816;4.422;2023-05-10T03:03:24;100142.75;;;12.99;100.00
76164;BME280;64897;50.816;4.422;2023-05-10T03:06:12;100137.63;;;12.98;100.00
76164;BME280;64897;50.816;4.422;2023-05-10T03:09:00;100141.75;;;12.91;100.00
76164;BME280;64897;50.816;4.422;2023-05-10T03:11:55;100139.00;;;12.92;100.00
76164;BME280;64897;50.816;4.422;2023-05-10T03:15:00;100146.31;;;12.98;100.00
76164;BME280;64897;50.816;4.422;2023-05-10T03:17:56;100152.00;;;12.94;100.00
76164;BME280;64897;50.816;4.422;2023-05-10T03:20:47;100151.56;;;12.98;100.00
76164;BME280;64897;50.816;4.422;2023-05-10T03:23:38;100146.19;;;12.90;100.00
76164;BME280;64897;50.816;4.422;2023-05-10T03:26:28;100160.25;;;12.89;100.00
76164;BME280;64897;50.816;4.422;2023-05-10T03:29:28;100158.88;;;12.85;100.00
76164;BME280;64897;50.816;4.422;2023-05-10T03:32:17;100157.31;;;12.83;100.00
76164;BME280;64897;50.816;4.422;2023-05-10T03:35:07;100156.09;;;12.87;100.00
76164;BME280;64897;50.816;4.422;2023-05-10T03:37:54;100161.06;;;12.90;100.00
76164;BME280;64897;50.816;4.422;2023-05-10T03:40:41;100159.56;;;12.87;100.00
76164;BME280;64897;50.816;4.422;2023-05-10T03:43:28;100163.13;;;12.86;100.00
76164;BME280;64897;50.816;4.422;2023-05-10T03:46:15;100164.38;;;12.82;100.00
76164;BME280;64897;50.816;4.422;2023-05-10T03:49:03;100170.72;;;12.80;100.00
76164;BME280;64897;50.816;4.422;2023-05-10T03:51:51;100172.66;;;12.87;100.00
76164;BME280;64897;50.816;4.422;2023-05-10T03:54:37;100174.75;;;12.93;100.00
76164;BME280;64897;50.816;4.422;2023-05-10T03:57:24;100169.63;;;12.92;100.00
76164;BME280;64897;50.816;4.422;2023-05-10T04:00:12;100174.59;;;12.95;100.00
76164;BME280;64897;50.816;4.422;2023-05-10T04:03:01;100181.13;;;13.00;100.00
76164;BME280;64897;50.816;4.422;2023-05-10T04:05:52;100176.28;;;12.96;100.00
76164;BME280;64897;50.816;4.422;2023-05-10T04:08:44;100183.72;;;13.00;100.00
76164;BME280;64897;50.816;4.422;2023-05-10T04:11:31;100181.69;;;13.04;100.00
76164;BME280;64897;50.816;4.422;2023-05-10T04:14:18;100181.56;;;13.05;100.00
76164;BME280;64897;50.816;4.422;2023-05-10T04:17:05;100179.06;;;13.04;100.00
76164;BME280;64897;50.816;4.422;2023-05-10T04:19:52;100172.97;;;13.03;100.00
76164;BME280;64897;50.816;4.422;2023-05-10T04:22:41;100173.81;;;13.04;100.00
76164;BME280;64897;50.816;4.422;2023-05-10T04:25:28;100172.72;;;12.97;100.00
76164;BME280;64897;50.816;4.422;2023-05-10T04:28:14;100178.06;;;12.95;100.00
76164;BME280;64897;50.816;4.422;2023-05-10T04:31:02;100176.41;;;12.94;100.00
76164;BME280;64897;50.816;4.422;2023-05-10T04:33:50;100173.50;;;12.97;100.00
76164;BME280;64897;50.816;4.422;2023-05-10T04:36:37;100170.41;;;12.83;100.00
76164;BME280;64897;50.816;4.422;2023-05-10T04:39:25;100178.75;;;12.88;100.00
76164;BME280;64897;50.816;4.422;2023-05-10T04:42:12;100181.22;;;12.89;100.00
76164;BME280;64897;50.816;4.422;2023-05-10T04:45:00;100185.94;;;12.95;100.00
76164;BME280;64897;50.816;4.422;2023-05-10T04:47:47;100184.00;;;12.97;100.00
76164;BME280;64897;50.816;4.422;2023-05-10T04:50:34;100188.19;;;13.00;100.00
76164;BME280;64897;50.816;4.422;2023-05-10T04:53:21;100180.56;;;12.97;100.00
76164;BME280;64897;50.816;4.422;2023-05-10T04:56:09;100185.66;;;12.98;100.00
76164;BME280;64897;50.816;4.422;2023-05-10T04:58:56;100191.88;;;12.97;100.00
76164;BME280;64897;50.816;4.422;2023-05-10T05:01:43;100187.34;;;12.99;100.00
76164;BME280;64897;50.816;4.422;2023-05-10T05:04:30;100191.34;;;13.03;100.00
76164;BME280;64897;50.816;4.422;2023-05-10T05:07:17;100194.09;;;13.02;100.00
76164;BME280;64897;50.816;4.422;2023-05-10T05:10:05;100199.47;;;13.00;100.00
76164;BME280;64897;50.816;4.422;2023-05-10T05:12:53;100203.34;;;13.06;100.00
76164;BME280;64897;50.816;4.422;2023-05-10T05:15:41;100206.09;;;12.95;100.00
76164;BME280;64897;50.816;4.422;2023-05-10T05:18:27;100209.69;;;12.94;100.00
76164;BME280;64897;50.816;4.422;2023-05-10T05:21:15;100215.22;;;13.00;100.00
76164;BME280;64897;50.816;4.422;2023-05-10T05:24:03;100224.06;;;12.99;100.00
76164;BME280;64897;50.816;4.422;2023-05-10T05:26:50;100223.59;;;12.94;100.00
76164;BME280;64897;50.816;4.422;2023-05-10T05:29:38;100224.59;;;12.93;100.00
76164;BME280;64897;50.816;4.422;2023-05-10T05:32:25;100230.78;;;12.92;100.00
76164;BME280;64897;50.816;4.422;2023-05-10T05:35:12;100243.22;;;12.90;100.00
76164;BME280;64897;50.816;4.422;2023-05-10T05:37:59;100236.28;;;12.89;100.00
76164;BME280;64897;50.816;4.422;2023-05-10T05:40:46;100244.00;;;12.81;100.00
76164;BME280;64897;50.816;4.422;2023-05-10T05:43:33;100241.56;;;12.69;100.00
76164;BME280;64897;50.816;4.422;2023-05-10T05:46:22;100241.28;;;12.62;100.00
76164;BME280;64897;50.816;4.422;2023-05-10T05:49:09;100253.53;;;12.62;100.00
76164;BME280;64897;50.816;4.422;2023-05-10T05:51:59;100251.94;;;12.70;100.00
76164;BME280;64897;50.816;4.422;2023-05-10T05:54:46;100258.56;;;12.74;100.00
76164;BME280;64897;50.816;4.422;2023-05-10T05:57:35;100261.34;;;12.73;100.00
76164;BME280;64897;50.816;4.422;2023-05-10T06:00:22;100257.28;;;12.69;100.00
76164;BME280;64897;50.816;4.422;2023-05-10T06:03:10;100261.00;;;12.66;100.00
76164;BME280;64897;50.816;4.422;2023-05-10T06:05:57;100265.56;;;12.64;100.00
76164;BME280;64897;50.816;4.422;2023-05-10T06:08:44;100262.25;;;12.62;100.00
76164;BME280;64897;50.816;4.422;2023-05-10T06:11:31;100269.47;;;12.70;100.00
76164;BME280;64897;50.816;4.422;2023-05-10T06:14:20;100277.50;;;12.57;100.00
76164;BME280;64897;50.816;4.422;2023-05-10T06:17:08;100276.19;;;12.63;100.00
76164;BME280;64897;50.816;4.422;2023-05-10T06:19:56;100277.41;;;12.58;100.00
76164;BME280;64897;50.816;4.422;2023-05-10T06:22:43;100274.84;;;12.47;100.00
76164;BME280;64897;50.816;4.422;2023-05-10T06:25:30;100287.22;;;12.45;100.00
76164;BME280;64897;50.816;4.422;2023-05-10T06:28:17;100285.31;;;12.47;100.00
76164;BME280;64897;50.816;4.422;2023-05-10T06:31:04;100290.44;;;12.49;100.00
76164;BME280;64897;50.816;4.422;2023-05-10T06:33:51;100293.94;;;12.38;100.00
76164;BME280;64897;50.816;4.422;2023-05-10T06:36:40;100289.84;;;12.45;100.00
76164;BME280;64897;50.816;4.422;2023-05-10T06:39:27;100292.22;;;12.48;100.00
76164;BME280;64897;50.816;4.422;2023-05-10T06:42:14;100291.66;;;12.45;100.00
76164;BME280;64897;50.816;4.422;2023-05-10T06:45:06;100293.69;;;12.41;100.00
76164;BME280;64897;50.816;4.422;2023-05-10T06:47:54;100300.03;;;12.39;100.00
76164;BME280;64897;50.816;4.422;2023-05-10T06:50:41;100299.38;;;12.46;100.00
76164;BME280;64897;50.816;4.422;2023-05-10T06:53:29;100298.25;;;12.39;100.00
76164;BME280;64897;50.816;4.422;2023-05-10T06:56:16;100301.16;;;12.46;100.00
76164;BME280;64897;50.816;4.422;2023-05-10T06:59:03;100297.00;;;12.43;100.00
76164;BME280;64897;50.816;4.422;2023-05-10T07:01:50;100298.75;;;12.33;100.00
76164;BME280;64897;50.816;4.422;2023-05-10T07:04:37;100300.59;;;12.42;100.00
76164;BME280;64897;50.816;4.422;2023-05-10T07:07:24;100309.03;;;12.46;100.00
76164;BME280;64897;50.816;4.422;2023-05-10T07:10:12;100309.94;;;12.56;100.00
76164;BME280;64897;50.816;4.422;2023-05-10T07:12:59;100318.56;;;12.47;100.00
76164;BME280;64897;50.816;4.422;2023-05-10T07:15:46;100320.78;;;12.31;100.00
76164;BME280;64897;50.816;4.422;2023-05-10T07:18:34;100322.13;;;12.25;100.00
76164;BME280;64897;50.816;4.422;2023-05-10T07:21:21;100322.72;;;12.18;100.00
76164;BME280;64897;50.816;4.422;2023-05-10T07:24:09;100315.97;;;12.15;100.00
76164;BME280;64897;50.816;4.422;2023-05-10T07:26:58;100327.97;;;12.18;100.00
76164;BME280;64897;50.816;4.422;2023-05-10T07:29:45;100330.09;;;12.24;100.00
76164;BME280;64897;50.816;4.422;2023-05-10T07:32:32;100325.09;;;12.21;100.00
76164;BME280;64897;50.816;4.422;2023-05-10T07:35:19;100334.19;;;12.17;100.00
76164;BME280;64897;50.816;4.422;2023-05-10T07:38:06;100340.72;;;12.22;100.00
76164;BME280;64897;50.816;4.422;2023-05-10T07:40:53;100333.91;;;12.20;100.00
76164;BME280;64897;50.816;4.422;2023-05-10T07:43:42;100350.22;;;12.23;100.00
76164;BME280;64897;50.816;4.422;2023-05-10T07:46:29;100345.75;;;12.35;100.00
76164;BME280;64897;50.816;4.422;2023-05-10T07:49:16;100350.56;;;12.30;100.00
76164;BME280;64897;50.816;4.422;2023-05-10T07:52:04;100350.31;;;12.33;100.00
76164;BME280;64897;50.816;4.422;2023-05-10T07:54:51;100351.97;;;12.34;100.00
76164;BME280;64897;50.816;4.422;2023-05-10T07:57:39;100357.88;;;12.47;100.00
76164;BME280;64897;50.816;4.422;2023-05-10T08:00:30;100359.50;;;12.59;100.00
76164;BME280;64897;50.816;4.422;2023-05-10T08:03:17;100355.72;;;12.73;100.00
76164;BME280;64897;50.816;4.422;2023-05-10T08:06:04;100354.44;;;12.67;100.00
76164;BME280;64897;50.816;4.422;2023-05-10T08:08:51;100354.19;;;12.70;100.00
76164;BME280;64897;50.816;4.422;2023-05-10T08:11:39;100366.84;;;12.86;100.00
76164;BME280;64897;50.816;4.422;2023-05-10T08:14:27;100359.03;;;12.95;100.00
76164;BME280;64897;50.816;4.422;2023-05-10T08:17:15;100359.22;;;13.03;100.00
76164;BME280;64897;50.816;4.422;2023-05-10T08:20:03;100359.56;;;13.10;100.00
76164;BME280;64897;50.816;4.422;2023-05-10T08:22:49;100371.22;;;13.17;100.00
76164;BME280;64897;50.816;4.422;2023-05-10T08:25:36;100369.94;;;13.11;100.00
76164;BME280;64897;50.816;4.422;2023-05-10T08:28:23;100371.03;;;13.09;100.00
76164;BME280;64897;50.816;4.422;2023-05-10T08:31:10;100379.66;;;13.21;100.00
76164;BME280;64897;50.816;4.422;2023-05-10T08:33:58;100377.09;;;13.09;100.00
76164;BME280;64897;50.816;4.422;2023-05-10T08:36:45;100375.19;;;13.11;100.00
76164;BME280;64897;50.816;4.422;2023-05-10T08:39:34;100386.66;;;13.10;100.00
76164;BME280;64897;50.816;4.422;2023-05-10T08:42:23;100376.19;;;12.99;100.00
76164;BME280;64897;50.816;4.422;2023-05-10T08:45:13;100383.66;;;13.04;100.00
76164;BME280;64897;50.816;4.422;2023-05-10T08:48:01;100388.81;;;13.05;100.00
76164;BME280;64897;50.816;4.422;2023-05-10T08:50:53;100384.50;;;13.04;100.00
76164;BME280;64897;50.816;4.422;2023-05-10T08:53:41;100391.69;;;13.02;100.00
76164;BME280;64897;50.816;4.422;2023-05-10T08:56:28;100386.28;;;12.83;100.00
76164;BME280;64897;50.816;4.422;2023-05-10T08:59:15;100391.44;;;13.05;100.00
76164;BME280;64897;50.816;4.422;2023-05-10T09:02:05;100390.25;;;12.98;100.00
76164;BME280;64897;50.816;4.422;2023-05-10T09:04:52;100397.88;;;12.81;100.00
76164;BME280;64897;50.816;4.422;2023-05-10T09:07:40;100395.50;;;12.78;100.00
76164;BME280;64897;50.816;4.422;2023-05-10T09:10:28;100400.53;;;12.70;100.00
76164;BME280;64897;50.816;4.422;2023-05-10T09:13:16;100409.69;;;12.75;100.00
76164;BME280;64897;50.816;4.422;2023-05-10T09:16:04;100418.25;;;12.77;100.00
76164;BME280;64897;50.816;4.422;2023-05-10T09:18:51;100417.50;;;12.86;100.00
76164;BME280;64897;50.816;4.422;2023-05-10T09:21:38;100414.31;;;13.03;100.00
76164;BME280;64897;50.816;4.422;2023-05-10T09:24:28;100420.53;;;13.02;100.00
76164;BME280;64897;50.816;4.422;2023-05-10T09:27:16;100422.16;;;13.14;100.00
76164;BME280;64897;50.816;4.422;2023-05-10T09:30:03;100430.50;;;13.20;100.00
76164;BME280;64897;50.816;4.422;2023-05-10T09:32:51;100429.56;;;13.09;100.00
76164;BME280;64897;50.816;4.422;2023-05-10T09:35:38;100432.38;;;13.18;100.00
76164;BME280;64897;50.816;4.422;2023-05-10T09:38:25;100432.47;;;13.27;100.00
76164;BME280;64897;50.816;4.422;2023-05-10T09:41:18;100435.47;;;13.23;100.00
76164;BME280;64897;50.816;4.422;2023-05-10T09:44:05;100435.47;;;13.23;100.00
76164;BME280;64897;50.816;4.422;2023-05-10T09:46:54;100443.09;;;13.26;100.00
76164;BME280;64897;50.816;4.422;2023-05-10T09:49:42;100449.03;;;13.28;100.00
76164;BME280;64897;50.816;4.422;2023-05-10T09:52:30;100439.31;;;13.19;100.00
76164;BME280;64897;50.816;4.422;2023-05-10T09:55:19;100452.25;;;13.10;100.00
76164;BME280;64897;50.816;4.422;2023-05-10T09:58:08;100448.91;;;13.08;100.00
76164;BME280;64897;50.816;4.422;2023-05-10T10:00:56;100450.19;;;13.14;100.00
76164;BME280;64897;50.816;4.422;2023-05-10T10:03:43;100451.16;;;13.13;100.00
76164;BME280;64897;50.816;4.422;2023-05-10T10:06:36;100448.91;;;13.08;100.00
76164;BME280;64897;50.816;4.422;2023-05-10T10:09:24;100445.06;;;13.12;100.00
76164;BME280;64897;50.816;4.422;2023-05-10T10:12:11;100443.38;;;13.11;100.00
76164;BME280;64897;50.816;4.422;2023-05-10T10:15:00;100449.88;;;13.28;100.00
76164;BME280;64897;50.816;4.422;2023-05-10T10:17:49;100456.50;;;13.11;100.00
76164;BME280;64897;50.816;4.422;2023-05-10T10:20:37;100453.63;;;13.14;100.00
76164;BME280;64897;50.816;4.422;2023-05-10T10:23:24;100454.63;;;13.02;100.00
76164;BME280;64897;50.816;4.422;2023-05-10T10:26:12;100456.28;;;13.03;100.00
76164;BME280;64897;50.816;4.422;2023-05-10T10:29:08;100455.75;;;13.21;100.00
76164;BME280;64897;50.816;4.422;2023-05-10T10:32:07;100452.25;;;13.31;100.00
76164;BME280;64897;50.816;4.422;2023-05-10T10:34:56;100453.38;;;13.18;100.00
76164;BME280;64897;50.816;4.422;2023-05-10T10:37:44;100445.31;;;13.30;100.00
76164;BME280;64897;50.816;4.422;2023-05-10T10:40:33;100445.75;;;13.35;100.00
76164;BME280;64897;50.816;4.422;2023-05-10T10:43:24;100446.50;;;13.47;100.00
76164;BME280;64897;50.816;4.422;2023-05-10T10:46:13;100444.81;;;13.66;100.00
76164;BME280;64897;50.816;4.422;2023-05-10T10:49:10;100444.78;;;13.57;98.37
76164;BME280;64897;50.816;4.422;2023-05-10T10:52:21;100441.19;;;13.58;99.72
76164;BME280;64897;50.816;4.422;2023-05-10T10:55:10;100436.41;;;13.63;98.87
76164;BME280;64897;50.816;4.422;2023-05-10T10:57:57;100444.97;;;13.65;99.08
76164;BME280;64897;50.816;4.422;2023-05-10T11:00:47;100436.47;;;13.82;99.24
76164;BME280;64897;50.816;4.422;2023-05-10T11:03:34;100438.69;;;13.87;97.98
76164;BME280;64897;50.816;4.422;2023-05-10T11:06:30;100446.97;;;13.82;99.86
76164;BME280;64897;50.816;4.422;2023-05-10T11:09:19;100442.41;;;13.84;97.80
76164;BME280;64897;50.816;4.422;2023-05-10T11:12:09;100442.19;;;14.06;96.31
76164;BME280;64897;50.816;4.422;2023-05-10T11:14:58;100439.34;;;14.19;96.17
76164;BME280;64897;50.816;4.422;2023-05-10T11:17:45;100431.34;;;14.30;93.76
76164;BME280;64897;50.816;4.422;2023-05-10T11:20:39;100439.28;;;14.59;93.00
76164;BME280;64897;50.816;4.422;2023-05-10T11:23:32;100439.03;;;14.62;92.12
76164;BME280;64897;50.816;4.422;2023-05-10T11:26:19;100439.28;;;14.78;91.53
76164;BME280;64897;50.816;4.422;2023-05-10T11:29:09;100439.44;;;14.76;90.90
76164;BME280;64897;50.816;4.422;2023-05-10T11:31:58;100437.78;;;14.95;90.57
76164;BME280;64897;50.816;4.422;2023-05-10T11:34:47;100441.78;;;14.99;88.88
76164;BME280;64897;50.816;4.422;2023-05-10T11:37:34;100444.97;;;15.12;86.51
76164;BME280;64897;50.816;4.422;2023-05-10T11:40:23;100437.03;;;15.40;85.27
76164;BME280;64897;50.816;4.422;2023-05-10T11:43:10;100440.47;;;15.51;85.72
76164;BME280;64897;50.816;4.422;2023-05-10T11:45:58;100431.47;;;15.44;85.76
76164;BME280;64897;50.816;4.422;2023-05-10T11:48:45;100440.22;;;15.34;87.55
76164;BME280;64897;50.816;4.422;2023-05-10T11:51:34;100435.75;;;15.54;86.42
76164;BME280;64897;50.816;4.422;2023-05-10T11:54:22;100432.00;;;15.57;87.21
76164;BME280;64897;50.816;4.422;2023-05-10T11:57:10;100436.50;;;15.47;84.61
76164;BME280;64897;50.816;4.422;2023-05-10T11:59:57;100428.41;;;15.38;83.37
76164;BME280;64897;50.816;4.422;2023-05-10T12:02:44;100432.72;;;15.30;86.84
76164;BME280;64897;50.816;4.422;2023-05-10T12:05:32;100430.75;;;15.41;87.24
76164;BME280;64897;50.816;4.422;2023-05-10T12:08:22;100430.34;;;15.56;85.18
76164;BME280;64897;50.816;4.422;2023-05-10T12:11:09;100433.22;;;15.62;85.28
76164;BME280;64897;50.816;4.422;2023-05-10T12:13:58;100423.16;;;15.85;83.36
76164;BME280;64897;50.816;4.422;2023-05-10T12:16:45;100423.25;;;15.93;82.79
76164;BME280;64897;50.816;4.422;2023-05-10T12:19:37;100426.38;;;16.06;81.96
76164;BME280;64897;50.816;4.422;2023-05-10T12:22:25;100428.53;;;16.20;81.46
76164;BME280;64897;50.816;4.422;2023-05-10T12:25:12;100425.94;;;16.11;81.91
76164;BME280;64897;50.816;4.422;2023-05-10T12:28:00;100421.16;;;16.24;81.95
76164;BME280;64897;50.816;4.422;2023-05-10T12:30:53;100418.66;;;16.22;81.01
76164;BME280;64897;50.816;4.422;2023-05-10T12:33:43;100412.41;;;16.23;79.37
76164;BME280;64897;50.816;4.422;2023-05-10T12:36:30;100421.16;;;16.24;78.27
76164;BME280;64897;50.816;4.422;2023-05-10T12:39:18;100426.53;;;16.49;78.42
76164;BME280;64897;50.816;4.422;2023-05-10T12:42:05;100424.38;;;16.63;78.25
76164;BME280;64897;50.816;4.422;2023-05-10T12:44:55;100427.06;;;16.71;79.24
76164;BME280;64897;50.816;4.422;2023-05-10T12:47:44;100426.72;;;16.66;77.69
76164;BME280;64897;50.816;4.422;2023-05-10T12:50:30;100424.31;;;16.55;78.73
76164;BME280;64897;50.816;4.422;2023-05-10T12:53:17;100421.19;;;16.59;79.09
76164;BME280;64897;50.816;4.422;2023-05-10T12:56:04;100423.22;;;16.65;78.59
76164;BME280;64897;50.816;4.422;2023-05-10T12:58:51;100431.50;;;16.52;78.48
76164;BME280;64897;50.816;4.422;2023-05-10T13:01:38;100433.72;;;16.57;76.15
76164;BME280;64897;50.816;4.422;2023-05-10T13:04:27;100436.47;;;16.38;77.40
76164;BME280;64897;50.816;4.422;2023-05-10T13:07:13;100438.50;;;16.44;76.34
76164;BME280;64897;50.816;4.422;2023-05-10T13:10:00;100430.94;;;16.59;74.80
76164;BME280;64897;50.816;4.422;2023-05-10T13:12:49;100426.19;;;16.62;75.97
76164;BME280;64897;50.816;4.422;2023-05-10T13:15:36;100438.94;;;16.67;76.26
76164;BME280;64897;50.816;4.422;2023-05-10T13:18:23;100430.13;;;16.58;74.89
76164;BME280;64897;50.816;4.422;2023-05-10T13:21:12;100444.72;;;16.70;75.11
76164;BME280;64897;50.816;4.422;2023-05-10T13:23:59;100440.50;;;16.95;72.30
76164;BME280;64897;50.816;4.422;2023-05-10T13:26:46;100442.69;;;16.82;71.17
76164;BME280;64897;50.816;4.422;2023-05-10T13:29:34;100450.50;;;16.56;71.74
76164;BME280;64897;50.816;4.422;2023-05-10T13:32:21;100446.16;;;16.65;72.90
76164;BME280;64897;50.816;4.422;2023-05-10T13:35:08;100442.47;;;16.75;71.72
76164;BME280;64897;50.816;4.422;2023-05-10T13:37:57;100448.88;;;16.73;72.04
76164;BME280;64897;50.816;4.422;2023-05-10T13:40:44;100447.81;;;16.83;69.57
76164;BME280;64897;50.816;4.422;2023-05-10T13:43:31;100450.53;;;16.74;71.78
76164;BME280;64897;50.816;4.422;2023-05-10T13:46:18;100453.25;;;16.82;71.09
76164;BME280;64897;50.816;4.422;2023-05-10T13:49:05;100445.47;;;16.80;71.01
76164;BME280;64897;50.816;4.422;2023-05-10T13:51:52;100448.22;;;17.14;70.73
76164;BME280;64897;50.816;4.422;2023-05-10T13:54:41;100438.13;;;17.27;68.17
76164;BME280;64897;50.816;4.422;2023-05-10T13:57:28;100445.28;;;17.17;67.00
76164;BME280;64897;50.816;4.422;2023-05-10T14:00:16;100440.56;;;17.03;67.98
76164;BME280;64897;50.816;4.422;2023-05-10T14:03:03;100442.59;;;16.74;69.94
76164;BME280;64897;50.816;4.422;2023-05-10T14:05:52;100445.50;;;16.53;71.56
76164;BME280;64897;50.816;4.422;2023-05-10T14:08:39;100448.41;;;16.60;72.67
76164;BME280;64897;50.816;4.422;2023-05-10T14:11:27;100448.72;;;16.74;72.90
76164;BME280;64897;50.816;4.422;2023-05-10T14:14:14;100437.72;;;16.61;72.45
76164;BME280;64897;50.816;4.422;2023-05-10T14:17:01;100438.41;;;16.63;73.17
76164;BME280;64897;50.816;4.422;2023-05-10T14:19:48;100441.03;;;16.36;75.49
76164;BME280;64897;50.816;4.422;2023-05-10T14:22:35;100437.09;;;16.22;77.00
76164;BME280;64897;50.816;4.422;2023-05-10T14:25:22;100437.22;;;16.03;78.25
76164;BME280;64897;50.816;4.422;2023-05-10T14:28:10;100437.66;;;15.98;79.86
76164;BME280;64897;50.816;4.422;2023-05-10T14:30:58;100435.97;;;16.25;79.51
76164;BME280;64897;50.816;4.422;2023-05-10T14:33:45;100434.38;;;16.41;79.62